Aviation Digital Data Service (ADDS)

Output produced by TAFs form (0926 UTC 25 May 2015)
found at http://www.aviationweather.gov/adds/tafs/
 
KAPA 250853Z 21004KT 10SM FEW080 BKN220 06/04 A2989 RMK AO2 SLP094 T00610044 55005 $
KAPA 250851Z 2509/2606 21005KT P6SM SCT070 BKN200 
     FM251300 33007KT P6SM SCT060 BKN090 
     FM251900 04008KT P6SM SCT040 BKN080 
     FM252000 06008KT P6SM SCT045 BKN070 
     TEMPO 2520/2524 5SM -TSRA BKN040CB 
     FM260300 23009KT P6SM BKN060